Aviation Digital Data Service (ADDS)

Output produced by METARs form (1936 UTC 23 January 2019)
found at http://www.aviationweather.gov/metar/data/
 
METAR text: RKTN 231900Z 33003KT CAVOK M03/M11 Q1023
Conditions at: RKTN (TAEGU (US/KOR-AF, KR) observed 1900 UTC 23 January 2019
Temperature: -3.0°C (27°F)
Dewpoint: -11.0°C (12°F) [RH = 54%]
Pressure (altimeter): 30.21 inches Hg (1023.0 mb)
Winds: from the NNW (330 degrees) at 3 MPH (3 knots; 1.5 m/s)
Visibility: 6 or more miles (10+ km)
Ceiling: ceiling and visibility are OK
Clouds: unknown
Weather: no significant weather observed at this time

METAR text: RKTN 231800Z 33005KT CAVOK M02/M10 Q1023
Conditions at: RKTN (TAEGU (US/KOR-AF, KR) observed 1800 UTC 23 January 2019
Temperature: -2.0°C (28°F)
Dewpoint: -10.0°C (14°F) [RH = 54%]
Pressure (altimeter): 30.21 inches Hg (1023.0 mb)
Winds: from the NNW (330 degrees) at 6 MPH (5 knots; 2.6 m/s)
Visibility: 6 or more miles (10+ km)
Ceiling: ceiling and visibility are OK
Clouds: unknown
Weather: no significant weather observed at this time

METAR text: RKTN 231700Z 31004KT CAVOK M01/M11 Q1022
Conditions at: RKTN (TAEGU (US/KOR-AF, KR) observed 1700 UTC 23 January 2019
Temperature: -1.0°C (30°F)
Dewpoint: -11.0°C (12°F) [RH = 47%]
Pressure (altimeter): 30.18 inches Hg (1022.0 mb)
Winds: from the NW (310 degrees) at 5 MPH (4 knots; 2.1 m/s)
Visibility: 6 or more miles (10+ km)
Ceiling: ceiling and visibility are OK
Clouds: unknown
Weather: no significant weather observed at this time

METAR text: RKTN 231600Z 33002KT CAVOK 00/M12 Q1022
Conditions at: RKTN (TAEGU (US/KOR-AF, KR) observed 1600 UTC 23 January 2019
Temperature: 0.0°C (32°F)
Dewpoint: -12.0°C (10°F) [RH = 40%]
Pressure (altimeter): 30.18 inches Hg (1022.0 mb)
Winds: from the NNW (330 degrees) at 2 MPH (2 knots; 1.0 m/s)
Visibility: 6 or more miles (10+ km)
Ceiling: ceiling and visibility are OK
Clouds: unknown
Weather: no significant weather observed at this time

METAR text: RKTN 231500Z 35002KT CAVOK 01/M12 Q1022
Conditions at: RKTN (TAEGU (US/KOR-AF, KR) observed 1500 UTC 23 January 2019
Temperature: 1.0°C (34°F)
Dewpoint: -12.0°C (10°F) [RH = 37%]
Pressure (altimeter): 30.18 inches Hg (1022.0 mb)
Winds: from the N (350 degrees) at 2 MPH (2 knots; 1.0 m/s)
Visibility: 6 or more miles (10+ km)
Ceiling: ceiling and visibility are OK
Clouds: unknown
Weather: no significant weather observed at this time

METAR text: RKTN 231400Z 32009KT CAVOK 03/M13 Q1021
Conditions at: RKTN (TAEGU (US/KOR-AF, KR) observed 1400 UTC 23 January 2019
Temperature: 3.0°C (37°F)
Dewpoint: -13.0°C ( 9°F) [RH = 30%]
Pressure (altimeter): 30.15 inches Hg (1021.0 mb)
Winds: from the NW (320 degrees) at 10 MPH (9 knots; 4.6 m/s)
Visibility: 6 or more miles (10+ km)
Ceiling: ceiling and visibility are OK
Clouds: unknown
Weather: no significant weather observed at this time

METAR text: RKTN 231300Z 31012KT CAVOK 02/M11 Q1020
Conditions at: RKTN (TAEGU (US/KOR-AF, KR) observed 1300 UTC 23 January 2019
Temperature: 2.0°C (36°F)
Dewpoint: -11.0°C (12°F) [RH = 37%]
Pressure (altimeter): 30.12 inches Hg (1020.0 mb)
Winds: from the NW (310 degrees) at 14 MPH (12 knots; 6.2 m/s)
Visibility: 6 or more miles (10+ km)
Ceiling: ceiling and visibility are OK
Clouds: unknown
Weather: no significant weather observed at this time

METAR text: RKTN 231200Z 31004KT CAVOK 04/M08 Q1020
Conditions at: RKTN (TAEGU (US/KOR-AF, KR) observed 1200 UTC 23 January 2019
Temperature: 4.0°C (39°F)
Dewpoint: -8.0°C (18°F) [RH = 41%]
Pressure (altimeter): 30.12 inches Hg (1020.0 mb)
Winds: from the NW (310 degrees) at 5 MPH (4 knots; 2.1 m/s)
Visibility: 6 or more miles (10+ km)
Ceiling: ceiling and visibility are OK
Clouds: unknown
Weather: no significant weather observed at this time

METAR text: RKTN 231100Z 29007KT CAVOK 07/M07 Q1019
Conditions at: RKTN (TAEGU (US/KOR-AF, KR) observed 1100 UTC 23 January 2019
Temperature: 7.0°C (45°F)
Dewpoint: -7.0°C (19°F) [RH = 36%]
Pressure (altimeter): 30.09 inches Hg (1019.0 mb)
Winds: from the WNW (290 degrees) at 8 MPH (7 knots; 3.6 m/s)
Visibility: 6 or more miles (10+ km)
Ceiling: ceiling and visibility are OK
Clouds: unknown
Weather: no significant weather observed at this time

METAR text: RKTN 231000Z 30007KT CAVOK 06/M08 Q1019
Conditions at: RKTN (TAEGU (US/KOR-AF, KR) observed 1000 UTC 23 January 2019
Temperature: 6.0°C (43°F)
Dewpoint: -8.0°C (18°F) [RH = 36%]
Pressure (altimeter): 30.09 inches Hg (1019.0 mb)
Winds: from the WNW (300 degrees) at 8 MPH (7 knots; 3.6 m/s)
Visibility: 6 or more miles (10+ km)
Ceiling: ceiling and visibility are OK
Clouds: unknown
Weather: no significant weather observed at this time

METAR text: RKTN 230900Z 31011KT CAVOK 09/M07 Q1018
Conditions at: RKTN (TAEGU (US/KOR-AF, KR) observed 0900 UTC 23 January 2019
Temperature: 9.0°C (48°F)
Dewpoint: -7.0°C (19°F) [RH = 32%]
Pressure (altimeter): 30.06 inches Hg (1018.0 mb)
Winds: from the NW (310 degrees) at 13 MPH (11 knots; 5.7 m/s)
Visibility: 6 or more miles (10+ km)
Ceiling: ceiling and visibility are OK
Clouds: unknown
Weather: no significant weather observed at this time

METAR text: RKTN 230800Z 30012KT CAVOK 10/M08 Q1018
Conditions at: RKTN (TAEGU (US/KOR-AF, KR) observed 0800 UTC 23 January 2019
Temperature: 10.0°C (50°F)
Dewpoint: -8.0°C (18°F) [RH = 27%]
Pressure (altimeter): 30.06 inches Hg (1018.0 mb)
Winds: from the WNW (300 degrees) at 14 MPH (12 knots; 6.2 m/s)
Visibility: 6 or more miles (10+ km)
Ceiling: ceiling and visibility are OK
Clouds: unknown
Weather: no significant weather observed at this time

METAR text: RKTN 230700Z 32014KT CAVOK 11/M08 Q1017
Conditions at: RKTN (TAEGU (US/KOR-AF, KR) observed 0700 UTC 23 January 2019
Temperature: 11.0°C (52°F)
Dewpoint: -8.0°C (18°F) [RH = 25%]
Pressure (altimeter): 30.03 inches Hg (1017.0 mb)
Winds: from the NW (320 degrees) at 16 MPH (14 knots; 7.2 m/s)
Visibility: 6 or more miles (10+ km)
Ceiling: ceiling and visibility are OK
Clouds: unknown
Weather: no significant weather observed at this time

METAR text: RKTN 230600Z 29007KT CAVOK 11/M07 Q1017
Conditions at: RKTN (TAEGU (US/KOR-AF, KR) observed 0600 UTC 23 January 2019
Temperature: 11.0°C (52°F)
Dewpoint: -7.0°C (19°F) [RH = 28%]
Pressure (altimeter): 30.03 inches Hg (1017.0 mb)
Winds: from the WNW (290 degrees) at 8 MPH (7 knots; 3.6 m/s)
Visibility: 6 or more miles (10+ km)
Ceiling: ceiling and visibility are OK
Clouds: unknown
Weather: no significant weather observed at this time

METAR text: RKTN 230500Z 27007KT CAVOK 10/M05 Q1017
Conditions at: RKTN (TAEGU (US/KOR-AF, KR) observed 0500 UTC 23 January 2019
Temperature: 10.0°C (50°F)
Dewpoint: -5.0°C (23°F) [RH = 34%]
Pressure (altimeter): 30.03 inches Hg (1017.0 mb)
Winds: from the W (270 degrees) at 8 MPH (7 knots; 3.6 m/s)
Visibility: 6 or more miles (10+ km)
Ceiling: ceiling and visibility are OK
Clouds: unknown
Weather: no significant weather observed at this time

METAR text: RKTN 230400Z 28007KT CAVOK 09/M05 Q1018
Conditions at: RKTN (TAEGU (US/KOR-AF, KR) observed 0400 UTC 23 January 2019
Temperature: 9.0°C (48°F)
Dewpoint: -5.0°C (23°F) [RH = 37%]
Pressure (altimeter): 30.06 inches Hg (1018.0 mb)
Winds: from the W (280 degrees) at 8 MPH (7 knots; 3.6 m/s)
Visibility: 6 or more miles (10+ km)
Ceiling: ceiling and visibility are OK
Clouds: unknown
Weather: no significant weather observed at this time

METAR text: RKTN 230300Z 28005KT CAVOK 07/M04 Q1019
Conditions at: RKTN (TAEGU (US/KOR-AF, KR) observed 0300 UTC 23 January 2019
Temperature: 7.0°C (45°F)
Dewpoint: -4.0°C (25°F) [RH = 45%]
Pressure (altimeter): 30.09 inches Hg (1019.0 mb)
Winds: from the W (280 degrees) at 6 MPH (5 knots; 2.6 m/s)
Visibility: 6 or more miles (10+ km)
Ceiling: ceiling and visibility are OK
Clouds: unknown
Weather: no significant weather observed at this time

METAR text: RKTN 230200Z 29004KT CAVOK 05/M05 Q1019
Conditions at: RKTN (TAEGU (US/KOR-AF, KR) observed 0200 UTC 23 January 2019
Temperature: 5.0°C (41°F)
Dewpoint: -5.0°C (23°F) [RH = 48%]
Pressure (altimeter): 30.09 inches Hg (1019.0 mb)
Winds: from the WNW (290 degrees) at 5 MPH (4 knots; 2.1 m/s)
Visibility: 6 or more miles (10+ km)
Ceiling: ceiling and visibility are OK
Clouds: unknown
Weather: no significant weather observed at this time

METAR text: RKTN 230100Z 31002KT CAVOK 01/M05 Q1019
Conditions at: RKTN (TAEGU (US/KOR-AF, KR) observed 0100 UTC 23 January 2019
Temperature: 1.0°C (34°F)
Dewpoint: -5.0°C (23°F) [RH = 64%]
Pressure (altimeter): 30.09 inches Hg (1019.0 mb)
Winds: from the NW (310 degrees) at 2 MPH (2 knots; 1.0 m/s)
Visibility: 6 or more miles (10+ km)
Ceiling: ceiling and visibility are OK
Clouds: unknown
Weather: no significant weather observed at this time

METAR text: RKTN 230000Z 12002KT CAVOK M01/M06 Q1019
Conditions at: RKTN (TAEGU (US/KOR-AF, KR) observed 0000 UTC 23 January 2019
Temperature: -1.0°C (30°F)
Dewpoint: -6.0°C (21°F) [RH = 69%]
Pressure (altimeter): 30.09 inches Hg (1019.0 mb)
Winds: from the ESE (120 degrees) at 2 MPH (2 knots; 1.0 m/s)
Visibility: 6 or more miles (10+ km)
Ceiling: ceiling and visibility are OK
Clouds: unknown
Weather: no significant weather observed at this time

METAR text: RKTN 222300Z 10003KT CAVOK M03/M08 Q1018
Conditions at: RKTN (TAEGU (US/KOR-AF, KR) observed 2300 UTC 22 January 2019
Temperature: -3.0°C (27°F)
Dewpoint: -8.0°C (18°F) [RH = 68%]
Pressure (altimeter): 30.06 inches Hg (1018.0 mb)
Winds: from the E (100 degrees) at 3 MPH (3 knots; 1.5 m/s)
Visibility: 6 or more miles (10+ km)
Ceiling: ceiling and visibility are OK
Clouds: unknown
Weather: no significant weather observed at this time

METAR text: RKTN 222200Z 13004KT CAVOK M04/M08 Q1018
Conditions at: RKTN (TAEGU (US/KOR-AF, KR) observed 2200 UTC 22 January 2019
Temperature: -4.0°C (25°F)
Dewpoint: -8.0°C (18°F) [RH = 74%]
Pressure (altimeter): 30.06 inches Hg (1018.0 mb)
Winds: from the SE (130 degrees) at 5 MPH (4 knots; 2.1 m/s)
Visibility: 6 or more miles (10+ km)
Ceiling: ceiling and visibility are OK
Clouds: unknown
Weather: no significant weather observed at this time

METAR text: RKTN 222100Z 14002KT CAVOK M03/M08 Q1017
Conditions at: RKTN (TAEGU (US/KOR-AF, KR) observed 2100 UTC 22 January 2019
Temperature: -3.0°C (27°F)
Dewpoint: -8.0°C (18°F) [RH = 68%]
Pressure (altimeter): 30.03 inches Hg (1017.0 mb)
Winds: from the SE (140 degrees) at 2 MPH (2 knots; 1.0 m/s)
Visibility: 6 or more miles (10+ km)
Ceiling: ceiling and visibility are OK
Clouds: unknown
Weather: no significant weather observed at this time

METAR text: RKTN 222000Z 32003KT CAVOK M01/M08 Q1017
Conditions at: RKTN (TAEGU (US/KOR-AF, KR) observed 2000 UTC 22 January 2019
Temperature: -1.0°C (30°F)
Dewpoint: -8.0°C (18°F) [RH = 59%]
Pressure (altimeter): 30.03 inches Hg (1017.0 mb)
Winds: from the NW (320 degrees) at 3 MPH (3 knots; 1.5 m/s)
Visibility: 6 or more miles (10+ km)
Ceiling: ceiling and visibility are OK
Clouds: unknown
Weather: no significant weather observed at this time

METAR text: RKTN 221900Z 30003KT CAVOK M03/M08 Q1018
Conditions at: RKTN (TAEGU (US/KOR-AF, KR) observed 1900 UTC 22 January 2019
Temperature: -3.0°C (27°F)
Dewpoint: -8.0°C (18°F) [RH = 68%]
Pressure (altimeter): 30.06 inches Hg (1018.0 mb)
Winds: from the WNW (300 degrees) at 3 MPH (3 knots; 1.5 m/s)
Visibility: 6 or more miles (10+ km)
Ceiling: ceiling and visibility are OK
Clouds: unknown
Weather: no significant weather observed at this time

METAR text: RKTN 221800Z 31004KT CAVOK M01/M08 Q1018
Conditions at: RKTN (TAEGU (US/KOR-AF, KR) observed 1800 UTC 22 January 2019
Temperature: -1.0°C (30°F)
Dewpoint: -8.0°C (18°F) [RH = 59%]
Pressure (altimeter): 30.06 inches Hg (1018.0 mb)
Winds: from the NW (310 degrees) at 5 MPH (4 knots; 2.1 m/s)
Visibility: 6 or more miles (10+ km)
Ceiling: ceiling and visibility are OK
Clouds: unknown
Weather: no significant weather observed at this time

METAR text: RKTN 221700Z 33004KT CAVOK M01/M08 Q1018
Conditions at: RKTN (TAEGU (US/KOR-AF, KR) observed 1700 UTC 22 January 2019
Temperature: -1.0°C (30°F)
Dewpoint: -8.0°C (18°F) [RH = 59%]
Pressure (altimeter): 30.06 inches Hg (1018.0 mb)
Winds: from the NNW (330 degrees) at 5 MPH (4 knots; 2.1 m/s)
Visibility: 6 or more miles (10+ km)
Ceiling: ceiling and visibility are OK
Clouds: unknown
Weather: no significant weather observed at this time

METAR text: RKTN 221600Z 32005KT CAVOK M03/M09 Q1018
Conditions at: RKTN (TAEGU (US/KOR-AF, KR) observed 1600 UTC 22 January 2019
Temperature: -3.0°C (27°F)
Dewpoint: -9.0°C (16°F) [RH = 63%]
Pressure (altimeter): 30.06 inches Hg (1018.0 mb)
Winds: from the NW (320 degrees) at 6 MPH (5 knots; 2.6 m/s)
Visibility: 6 or more miles (10+ km)
Ceiling: ceiling and visibility are OK
Clouds: unknown
Weather: no significant weather observed at this time

METAR text: RKTN 221500Z 33005KT CAVOK 00/M09 Q1018
Conditions at: RKTN (TAEGU (US/KOR-AF, KR) observed 1500 UTC 22 January 2019
Temperature: 0.0°C (32°F)
Dewpoint: -9.0°C (16°F) [RH = 51%]
Pressure (altimeter): 30.06 inches Hg (1018.0 mb)
Winds: from the NNW (330 degrees) at 6 MPH (5 knots; 2.6 m/s)
Visibility: 6 or more miles (10+ km)
Ceiling: ceiling and visibility are OK
Clouds: unknown
Weather: no significant weather observed at this time

METAR text: RKTN 221400Z 34004KT CAVOK 01/M10 Q1018
Conditions at: RKTN (TAEGU (US/KOR-AF, KR) observed 1400 UTC 22 January 2019
Temperature: 1.0°C (34°F)
Dewpoint: -10.0°C (14°F) [RH = 44%]
Pressure (altimeter): 30.06 inches Hg (1018.0 mb)
Winds: from the NNW (340 degrees) at 5 MPH (4 knots; 2.1 m/s)
Visibility: 6 or more miles (10+ km)
Ceiling: ceiling and visibility are OK
Clouds: unknown
Weather: no significant weather observed at this time

METAR text: RKTN 221300Z 32008KT CAVOK 02/M08 Q1018
Conditions at: RKTN (TAEGU (US/KOR-AF, KR) observed 1300 UTC 22 January 2019
Temperature: 2.0°C (36°F)
Dewpoint: -8.0°C (18°F) [RH = 47%]
Pressure (altimeter): 30.06 inches Hg (1018.0 mb)
Winds: from the NW (320 degrees) at 9 MPH (8 knots; 4.1 m/s)
Visibility: 6 or more miles (10+ km)
Ceiling: ceiling and visibility are OK
Clouds: unknown
Weather: no significant weather observed at this time

METAR text: RKTN 221200Z 32004KT CAVOK 03/M07 Q1018
Conditions at: RKTN (TAEGU (US/KOR-AF, KR) observed 1200 UTC 22 January 2019
Temperature: 3.0°C (37°F)
Dewpoint: -7.0°C (19°F) [RH = 48%]
Pressure (altimeter): 30.06 inches Hg (1018.0 mb)
Winds: from the NW (320 degrees) at 5 MPH (4 knots; 2.1 m/s)
Visibility: 6 or more miles (10+ km)
Ceiling: ceiling and visibility are OK
Clouds: unknown
Weather: no significant weather observed at this time

METAR text: RKTN 221100Z 32006KT CAVOK 02/M07 Q1017
Conditions at: RKTN (TAEGU (US/KOR-AF, KR) observed 1100 UTC 22 January 2019
Temperature: 2.0°C (36°F)
Dewpoint: -7.0°C (19°F) [RH = 51%]
Pressure (altimeter): 30.03 inches Hg (1017.0 mb)
Winds: from the NW (320 degrees) at 7 MPH (6 knots; 3.1 m/s)
Visibility: 6 or more miles (10+ km)
Ceiling: ceiling and visibility are OK
Clouds: unknown
Weather: no significant weather observed at this time

METAR text: RKTN 221000Z 31004KT CAVOK 05/M06 Q1017
Conditions at: RKTN (TAEGU (US/KOR-AF, KR) observed 1000 UTC 22 January 2019
Temperature: 5.0°C (41°F)
Dewpoint: -6.0°C (21°F) [RH = 45%]
Pressure (altimeter): 30.03 inches Hg (1017.0 mb)
Winds: from the NW (310 degrees) at 5 MPH (4 knots; 2.1 m/s)
Visibility: 6 or more miles (10+ km)
Ceiling: ceiling and visibility are OK
Clouds: unknown
Weather: no significant weather observed at this time

METAR text: RKTN 220900Z 36002KT CAVOK 07/M08 Q1016
Conditions at: RKTN (TAEGU (US/KOR-AF, KR) observed 0900 UTC 22 January 2019
Temperature: 7.0°C (45°F)
Dewpoint: -8.0°C (18°F) [RH = 33%]
Pressure (altimeter): 30.00 inches Hg (1016.0 mb)
Winds: from the N (360 degrees) at 2 MPH (2 knots; 1.0 m/s)
Visibility: 6 or more miles (10+ km)
Ceiling: ceiling and visibility are OK
Clouds: unknown
Weather: no significant weather observed at this time

METAR text: RKTN 220800Z 34006KT CAVOK 09/M07 Q1017
Conditions at: RKTN (TAEGU (US/KOR-AF, KR) observed 0800 UTC 22 January 2019
Temperature: 9.0°C (48°F)
Dewpoint: -7.0°C (19°F) [RH = 32%]
Pressure (altimeter): 30.03 inches Hg (1017.0 mb)
Winds: from the NNW (340 degrees) at 7 MPH (6 knots; 3.1 m/s)
Visibility: 6 or more miles (10+ km)
Ceiling: ceiling and visibility are OK
Clouds: unknown
Weather: no significant weather observed at this time

Forecast for: RKTN (TAEGU (US/KOR-AF, KR)
Text: TAF RKTN 231700Z 2318/2424 30006KT 9999 SCT040 TNM05/2322Z TX08/2406Z
Forecast period: 1800 UTC 23 January 2019 to 0000 UTC 25 January 2019
Forecast type: FROM: standard forecast or significant change
Winds: from the WNW (300 degrees) at 7 MPH (6 knots; 3.1 m/s)
Visibility: 6 or more miles 10+ km)
Ceiling: at least 12,000 feet AGL
Clouds: scattered clouds at 4000 feet AGL
Weather: no significant weather forecast for this period